sensor_id;sensor_type;location;lat;lon;timestamp;pressure;altitude;pressure_sealevel;temperature;humidity
78206;BME280;67480;48.920;12.880;2024-01-06T00:01:28;95756.09;;;2.98;77.95
78206;BME280;67480;48.920;12.880;2024-01-06T00:03:55;95761.50;;;2.96;78.14
78206;BME280;67480;48.920;12.880;2024-01-06T00:06:20;95760.94;;;2.94;77.90
78206;BME280;67480;48.920;12.880;2024-01-06T00:08:46;95760.16;;;2.94;77.91
78206;BME280;67480;48.920;12.880;2024-01-06T00:11:12;95751.53;;;2.93;77.89
78206;BME280;67480;48.920;12.880;2024-01-06T00:13:38;95752.56;;;2.92;78.30
78206;BME280;67480;48.920;12.880;2024-01-06T00:16:03;95753.16;;;2.94;78.08
78206;BME280;67480;48.920;12.880;2024-01-06T00:18:29;95746.13;;;2.95;78.16
78206;BME280;67480;48.920;12.880;2024-01-06T00:20:54;95748.38;;;2.91;77.60
78206;BME280;67480;48.920;12.880;2024-01-06T00:23:19;95748.38;;;2.91;77.78
78206;BME280;67480;48.920;12.880;2024-01-06T00:25:45;95747.56;;;2.90;78.08
78206;BME280;67480;48.920;12.880;2024-01-06T00:28:10;95744.63;;;2.87;77.71
78206;BME280;67480;48.920;12.880;2024-01-06T00:30:35;95736.25;;;2.85;77.94
78206;BME280;67480;48.920;12.880;2024-01-06T00:33:01;95747.22;;;2.87;77.72
78206;BME280;67480;48.920;12.880;2024-01-06T00:35:26;95743.03;;;2.86;78.23
78206;BME280;67480;48.920;12.880;2024-01-06T00:37:51;95739.41;;;2.87;78.06
78206;BME280;67480;48.920;12.880;2024-01-06T00:40:17;95741.03;;;2.88;78.31
78206;BME280;67480;48.920;12.880;2024-01-06T00:42:44;95744.63;;;2.87;78.00
78206;BME280;67480;48.920;12.880;2024-01-06T00:45:10;95744.63;;;2.87;78.12
78206;BME280;67480;48.920;12.880;2024-01-06T00:47:35;95759.63;;;2.85;78.18
78206;BME280;67480;48.920;12.880;2024-01-06T00:50:00;95745.84;;;2.84;78.34
78206;BME280;67480;48.920;12.880;2024-01-06T00:52:26;95754.22;;;2.86;78.07
78206;BME280;67480;48.920;12.880;2024-01-06T00:54:51;95750.25;;;2.84;78.34
78206;BME280;67480;48.920;12.880;2024-01-06T00:57:16;95756.47;;;2.83;78.29
78206;BME280;67480;48.920;12.880;2024-01-06T00:59:42;95756.47;;;2.83;78.27
78206;BME280;67480;48.920;12.880;2024-01-06T01:02:07;95766.88;;;2.83;78.57
78206;BME280;67480;48.920;12.880;2024-01-06T01:04:32;95758.28;;;2.82;78.01
78206;BME280;67480;48.920;12.880;2024-01-06T01:06:58;95764.28;;;2.83;78.21
78206;BME280;67480;48.920;12.880;2024-01-06T01:09:23;95762.91;;;2.80;78.21
78206;BME280;67480;48.920;12.880;2024-01-06T01:11:48;95768.31;;;2.79;78.16
78206;BME280;67480;48.920;12.880;2024-01-06T01:14:14;95773.06;;;2.82;78.25
78206;BME280;67480;48.920;12.880;2024-01-06T01:16:39;95776.25;;;2.84;78.11
78206;BME280;67480;48.920;12.880;2024-01-06T01:19:04;95773.06;;;2.82;78.04
78206;BME280;67480;48.920;12.880;2024-01-06T01:21:30;95785.09;;;2.83;78.26
78206;BME280;67480;48.920;12.880;2024-01-06T01:23:55;95780.88;;;2.82;78.48
78206;BME280;67480;48.920;12.880;2024-01-06T01:26:21;95776.69;;;2.81;78.25
78206;BME280;67480;48.920;12.880;2024-01-06T01:28:46;95774.69;;;2.83;78.11
78206;BME280;67480;48.920;12.880;2024-01-06T01:31:12;95777.84;;;2.85;77.55
78206;BME280;67480;48.920;12.880;2024-01-06T01:33:38;95779.44;;;2.86;77.83
78206;BME280;67480;48.920;12.880;2024-01-06T01:36:04;95788.22;;;2.85;77.88
78206;BME280;67480;48.920;12.880;2024-01-06T01:38:29;95781.03;;;2.87;77.59
78206;BME280;67480;48.920;12.880;2024-01-06T01:40:54;95771.84;;;2.84;77.79
78206;BME280;67480;48.920;12.880;2024-01-06T01:43:20;95765.06;;;2.83;77.87
78206;BME280;67480;48.920;12.880;2024-01-06T01:45:53;95765.50;;;2.80;78.05
78206;BME280;67480;48.920;12.880;2024-01-06T01:48:20;95765.50;;;2.80;77.96
78206;BME280;67480;48.920;12.880;2024-01-06T01:50:46;95755.91;;;2.81;77.94
78206;BME280;67480;48.920;12.880;2024-01-06T01:53:13;95750.69;;;2.81;78.12
78206;BME280;67480;48.920;12.880;2024-01-06T01:55:40;95743.69;;;2.81;78.22
78206;BME280;67480;48.920;12.880;2024-01-06T01:58:05;95728.66;;;2.83;78.22
78206;BME280;67480;48.920;12.880;2024-01-06T02:00:31;95745.66;;;2.86;78.25
78206;BME280;67480;48.920;12.880;2024-01-06T02:02:56;95746.22;;;2.88;77.74
78206;BME280;67480;48.920;12.880;2024-01-06T02:05:23;95747.22;;;2.87;77.55
78206;BME280;67480;48.920;12.880;2024-01-06T02:07:49;95746.00;;;2.89;77.42
78206;BME280;67480;48.920;12.880;2024-01-06T02:10:16;95742.59;;;2.89;77.82
78206;BME280;67480;48.920;12.880;2024-01-06T02:12:41;95737.59;;;2.87;78.14
78206;BME280;67480;48.920;12.880;2024-01-06T02:15:08;95738.84;;;2.85;77.90
78206;BME280;67480;48.920;12.880;2024-01-06T02:17:33;95742.47;;;2.84;78.12
78206;BME280;67480;48.920;12.880;2024-01-06T02:19:59;95735.69;;;2.83;77.90
78206;BME280;67480;48.920;12.880;2024-01-06T02:22:24;95737.50;;;2.82;78.33
78206;BME280;67480;48.920;12.880;2024-01-06T02:24:49;95735.09;;;2.81;78.29
78206;BME280;67480;48.920;12.880;2024-01-06T02:27:15;95742.31;;;2.79;78.11
78206;BME280;67480;48.920;12.880;2024-01-06T02:29:40;95743.53;;;2.76;78.61
78206;BME280;67480;48.920;12.880;2024-01-06T02:32:05;95745.34;;;2.76;78.36
78206;BME280;67480;48.920;12.880;2024-01-06T02:34:31;95743.19;;;2.73;78.47
78206;BME280;67480;48.920;12.880;2024-01-06T02:36:57;95740.81;;;2.71;78.29
78206;BME280;67480;48.920;12.880;2024-01-06T02:39:23;95738.34;;;2.76;78.56
78206;BME280;67480;48.920;12.880;2024-01-06T02:41:49;95735.19;;;2.74;78.61
78206;BME280;67480;48.920;12.880;2024-01-06T02:44:15;95736.56;;;2.77;78.48
78206;BME280;67480;48.920;12.880;2024-01-06T02:46:40;95730.34;;;2.78;78.19
78206;BME280;67480;48.920;12.880;2024-01-06T02:49:06;95734.31;;;2.80;78.58
78206;BME280;67480;48.920;12.880;2024-01-06T02:51:32;95738.72;;;2.80;78.28
78206;BME280;67480;48.920;12.880;2024-01-06T02:53:57;95740.72;;;2.78;78.05
78206;BME280;67480;48.920;12.880;2024-01-06T02:56:22;95746.38;;;2.75;78.30
78206;BME280;67480;48.920;12.880;2024-01-06T02:58:48;95747.59;;;2.72;78.41
78206;BME280;67480;48.920;12.880;2024-01-06T03:01:13;95740.00;;;2.71;78.57
78206;BME280;67480;48.920;12.880;2024-01-06T03:03:38;95737.84;;;2.67;78.74
78206;BME280;67480;48.920;12.880;2024-01-06T03:06:04;95738.66;;;2.68;78.54
78206;BME280;67480;48.920;12.880;2024-01-06T03:08:29;95743.03;;;2.67;78.35
78206;BME280;67480;48.920;12.880;2024-01-06T03:10:54;95745.63;;;2.67;78.65
78206;BME280;67480;48.920;12.880;2024-01-06T03:13:20;95742.03;;;2.69;78.40
78206;BME280;67480;48.920;12.880;2024-01-06T03:15:45;95730.03;;;2.67;78.53
78206;BME280;67480;48.920;12.880;2024-01-06T03:18:11;95732.63;;;2.67;78.45
78206;BME280;67480;48.920;12.880;2024-01-06T03:20:36;95740.25;;;2.69;78.31
78206;BME280;67480;48.920;12.880;2024-01-06T03:23:01;95743.63;;;2.70;78.31
78206;BME280;67480;48.920;12.880;2024-01-06T03:25:27;95738.44;;;2.70;78.56
78206;BME280;67480;48.920;12.880;2024-01-06T03:27:52;95735.81;;;2.70;78.65
78206;BME280;67480;48.920;12.880;2024-01-06T03:30:17;95743.19;;;2.73;78.48
78206;BME280;67480;48.920;12.880;2024-01-06T03:32:43;95748.19;;;2.74;78.48
78206;BME280;67480;48.920;12.880;2024-01-06T03:35:11;95745.59;;;2.74;78.60
78206;BME280;67480;48.920;12.880;2024-01-06T03:37:37;95739.78;;;2.72;78.53
78206;BME280;67480;48.920;12.880;2024-01-06T03:40:03;95743.63;;;2.70;78.58
78206;BME280;67480;48.920;12.880;2024-01-06T03:42:28;95730.44;;;2.71;78.52
78206;BME280;67480;48.920;12.880;2024-01-06T03:44:53;95728.63;;;2.72;78.54
78206;BME280;67480;48.920;12.880;2024-01-06T03:47:19;95732.19;;;2.71;78.33
78206;BME280;67480;48.920;12.880;2024-01-06T03:49:44;95725.56;;;2.75;78.54
78206;BME280;67480;48.920;12.880;2024-01-06T03:52:10;95726.59;;;2.74;78.20
78206;BME280;67480;48.920;12.880;2024-01-06T03:54:35;95734.41;;;2.74;78.46
78206;BME280;67480;48.920;12.880;2024-01-06T03:57:00;95730.97;;;2.73;78.47
78206;BME280;67480;48.920;12.880;2024-01-06T03:59:26;95730.78;;;2.75;78.27
78206;BME280;67480;48.920;12.880;2024-01-06T04:01:51;95729.97;;;2.74;78.73
78206;BME280;67480;48.920;12.880;2024-01-06T04:04:16;95732.34;;;2.76;78.18
78206;BME280;67480;48.920;12.880;2024-01-06T04:06:42;95731.34;;;2.77;78.63
78206;BME280;67480;48.920;12.880;2024-01-06T04:09:07;95741.16;;;2.75;78.17
78206;BME280;67480;48.920;12.880;2024-01-06T04:11:34;95733.13;;;2.76;78.73
78206;BME280;67480;48.920;12.880;2024-01-06T04:13:59;95728.19;;;2.75;78.51
78206;BME280;67480;48.920;12.880;2024-01-06T04:16:26;95735.19;;;2.74;78.42
78206;BME280;67480;48.920;12.880;2024-01-06T04:18:52;95746.38;;;2.75;78.65
78206;BME280;67480;48.920;12.880;2024-01-06T04:21:17;95736.41;;;2.72;78.48
78206;BME280;67480;48.920;12.880;2024-01-06T04:23:42;95747.59;;;2.72;78.77
78206;BME280;67480;48.920;12.880;2024-01-06T04:26:11;95749.25;;;2.66;78.63
78206;BME280;67480;48.920;12.880;2024-01-06T04:28:36;95742.91;;;2.62;78.89
78206;BME280;67480;48.920;12.880;2024-01-06T04:31:02;95748.13;;;2.62;78.72
78206;BME280;67480;48.920;12.880;2024-01-06T04:33:27;95742.91;;;2.62;78.63
78206;BME280;67480;48.920;12.880;2024-01-06T04:35:53;95740.31;;;2.62;78.92
78206;BME280;67480;48.920;12.880;2024-01-06T04:38:18;95748.66;;;2.64;79.03
78206;BME280;67480;48.920;12.880;2024-01-06T04:40:44;95748.91;;;2.63;78.87
78206;BME280;67480;48.920;12.880;2024-01-06T04:43:09;95750.47;;;2.64;79.05
78206;BME280;67480;48.920;12.880;2024-01-06T04:45:34;95754.88;;;2.63;78.59
78206;BME280;67480;48.920;12.880;2024-01-06T04:48:02;95759.44;;;2.68;78.44
78206;BME280;67480;48.920;12.880;2024-01-06T04:50:28;95759.81;;;2.72;78.72
78206;BME280;67480;48.920;12.880;2024-01-06T04:52:53;95767.59;;;2.72;78.79
78206;BME280;67480;48.920;12.880;2024-01-06T04:55:19;95771.00;;;2.72;78.53
78206;BME280;67480;48.920;12.880;2024-01-06T04:57:44;95778.00;;;2.72;78.40
78206;BME280;67480;48.920;12.880;2024-01-06T05:00:10;95776.41;;;2.71;78.37
78206;BME280;67480;48.920;12.880;2024-01-06T05:02:36;95775.59;;;2.70;78.75
78206;BME280;67480;48.920;12.880;2024-01-06T05:05:01;95773.38;;;2.74;78.72
78206;BME280;67480;48.920;12.880;2024-01-06T05:07:29;95775.41;;;2.72;78.40
78206;BME280;67480;48.920;12.880;2024-01-06T05:09:55;95771.19;;;2.71;78.42
78206;BME280;67480;48.920;12.880;2024-01-06T05:12:21;95773.00;;;2.70;78.62
78206;BME280;67480;48.920;12.880;2024-01-06T05:14:46;95777.25;;;2.64;78.58
78206;BME280;67480;48.920;12.880;2024-01-06T05:17:12;95780.28;;;2.61;78.68
78206;BME280;67480;48.920;12.880;2024-01-06T05:19:37;95782.91;;;2.61;79.33
78206;BME280;67480;48.920;12.880;2024-01-06T05:22:03;95796.13;;;2.60;79.06
78206;BME280;67480;48.920;12.880;2024-01-06T05:24:28;95784.13;;;2.59;78.95
78206;BME280;67480;48.920;12.880;2024-01-06T05:26:57;95776.13;;;2.60;79.22
78206;BME280;67480;48.920;12.880;2024-01-06T05:29:22;95792.84;;;2.64;78.87
78206;BME280;67480;48.920;12.880;2024-01-06T05:31:49;95793.66;;;2.65;78.59
78206;BME280;67480;48.920;12.880;2024-01-06T05:34:15;95792.84;;;2.64;79.02
78206;BME280;67480;48.920;12.880;2024-01-06T05:36:40;95789.69;;;2.62;78.63
78206;BME280;67480;48.920;12.880;2024-01-06T05:39:06;95797.50;;;2.62;78.92
78206;BME280;67480;48.920;12.880;2024-01-06T05:41:37;95800.31;;;2.61;78.64
78206;BME280;67480;48.920;12.880;2024-01-06T05:44:03;95809.13;;;2.60;78.90
78206;BME280;67480;48.920;12.880;2024-01-06T05:46:29;95806.72;;;2.58;78.40
78206;BME280;67480;48.920;12.880;2024-01-06T05:48:55;95817.91;;;2.59;78.58
78206;BME280;67480;48.920;12.880;2024-01-06T05:51:21;95806.13;;;2.56;78.93
78206;BME280;67480;48.920;12.880;2024-01-06T05:53:46;95816.09;;;2.59;79.07
78206;BME280;67480;48.920;12.880;2024-01-06T05:56:22;95828.09;;;2.60;78.92
78206;BME280;67480;48.920;12.880;2024-01-06T05:58:48;95828.09;;;2.60;78.96
78206;BME280;67480;48.920;12.880;2024-01-06T06:01:13;95830.28;;;2.63;78.89
78206;BME280;67480;48.920;12.880;2024-01-06T06:03:39;95838.25;;;2.62;78.82
78206;BME280;67480;48.920;12.880;2024-01-06T06:06:04;95835.66;;;2.62;79.11
78206;BME280;67480;48.920;12.880;2024-01-06T06:08:29;95838.66;;;2.65;78.91
78206;BME280;67480;48.920;12.880;2024-01-06T06:10:55;95838.66;;;2.65;78.82
78206;BME280;67480;48.920;12.880;2024-01-06T06:13:28;95844.84;;;2.64;78.70
78206;BME280;67480;48.920;12.880;2024-01-06T06:15:54;95846.44;;;2.65;79.01
78206;BME280;67480;48.920;12.880;2024-01-06T06:18:20;95850.63;;;2.66;78.46
78206;BME280;67480;48.920;12.880;2024-01-06T06:20:46;95860.81;;;2.68;78.66
78206;BME280;67480;48.920;12.880;2024-01-06T06:23:13;95849.59;;;2.67;78.52
78206;BME280;67480;48.920;12.880;2024-01-06T06:25:38;95852.78;;;2.70;78.59
78206;BME280;67480;48.920;12.880;2024-01-06T06:28:04;95846.03;;;2.69;78.36
78206;BME280;67480;48.920;12.880;2024-01-06T06:30:33;95857.22;;;2.69;78.66
78206;BME280;67480;48.920;12.880;2024-01-06T06:32:59;95864.41;;;2.67;78.74
78206;BME280;67480;48.920;12.880;2024-01-06T06:35:25;95860.00;;;2.67;78.63
78206;BME280;67480;48.920;12.880;2024-01-06T06:37:51;95850.84;;;2.65;78.40
78206;BME280;67480;48.920;12.880;2024-01-06T06:40:17;95858.59;;;2.72;78.64
78206;BME280;67480;48.920;12.880;2024-01-06T06:42:43;95858.00;;;2.70;78.61
78206;BME280;67480;48.920;12.880;2024-01-06T06:45:09;95864.16;;;2.75;78.47
78206;BME280;67480;48.920;12.880;2024-01-06T06:47:37;95855.63;;;2.68;78.49
78206;BME280;67480;48.920;12.880;2024-01-06T06:50:02;95879.75;;;2.75;78.72
78206;BME280;67480;48.920;12.880;2024-01-06T06:52:29;95870.78;;;2.71;78.49
78206;BME280;67480;48.920;12.880;2024-01-06T06:54:54;95872.00;;;2.69;78.45
78206;BME280;67480;48.920;12.880;2024-01-06T06:57:21;95873.75;;;2.75;78.29
78206;BME280;67480;48.920;12.880;2024-01-06T06:59:47;95872.19;;;2.74;78.04
78206;BME280;67480;48.920;12.880;2024-01-06T07:02:13;95869.03;;;2.65;78.73
78206;BME280;67480;48.920;12.880;2024-01-06T07:04:38;95885.81;;;2.69;78.86
78206;BME280;67480;48.920;12.880;2024-01-06T07:07:06;95890.03;;;2.63;78.68
78206;BME280;67480;48.920;12.880;2024-01-06T07:09:31;95890.84;;;2.64;78.54
78206;BME280;67480;48.920;12.880;2024-01-06T07:11:57;95902.81;;;2.65;78.76
78206;BME280;67480;48.920;12.880;2024-01-06T07:14:22;95898.63;;;2.64;79.05
78206;BME280;67480;48.920;12.880;2024-01-06T07:16:48;95903.41;;;2.67;78.61
78206;BME280;67480;48.920;12.880;2024-01-06T07:19:14;95914.03;;;2.65;78.58
78206;BME280;67480;48.920;12.880;2024-01-06T07:21:39;95918.41;;;2.65;78.41
78206;BME280;67480;48.920;12.880;2024-01-06T07:24:05;95919.66;;;2.62;78.59
78206;BME280;67480;48.920;12.880;2024-01-06T07:26:30;95918.41;;;2.65;78.81
78206;BME280;67480;48.920;12.880;2024-01-06T07:28:56;95910.00;;;2.70;78.74
78206;BME280;67480;48.920;12.880;2024-01-06T07:31:21;95923.41;;;2.66;78.62
78206;BME280;67480;48.920;12.880;2024-01-06T07:33:46;95931.00;;;2.68;78.87
78206;BME280;67480;48.920;12.880;2024-01-06T07:36:12;95927.59;;;2.67;78.79
78206;BME280;67480;48.920;12.880;2024-01-06T07:38:37;95933.19;;;2.71;78.98
78206;BME280;67480;48.920;12.880;2024-01-06T07:41:03;95940.75;;;2.73;78.78
78206;BME280;67480;48.920;12.880;2024-01-06T07:43:30;95932.94;;;2.73;78.32
78206;BME280;67480;48.920;12.880;2024-01-06T07:45:55;95935.19;;;2.69;78.64
78206;BME280;67480;48.920;12.880;2024-01-06T07:48:21;95935.78;;;2.71;78.84
78206;BME280;67480;48.920;12.880;2024-01-06T07:50:46;95943.16;;;2.74;78.92
78206;BME280;67480;48.920;12.880;2024-01-06T07:53:12;95941.34;;;2.75;78.79
78206;BME280;67480;48.920;12.880;2024-01-06T07:55:39;95943.72;;;2.76;78.72
78206;BME280;67480;48.920;12.880;2024-01-06T07:58:05;95945.94;;;2.73;78.93
78206;BME280;67480;48.920;12.880;2024-01-06T08:00:30;95951.75;;;2.75;78.93
78206;BME280;67480;48.920;12.880;2024-01-06T08:02:59;95951.94;;;2.73;78.92
78206;BME280;67480;48.920;12.880;2024-01-06T08:05:25;95951.38;;;2.71;78.90
78206;BME280;67480;48.920;12.880;2024-01-06T08:07:51;95955.34;;;2.74;78.85
78206;BME280;67480;48.920;12.880;2024-01-06T08:10:17;95961.13;;;2.76;78.63
78206;BME280;67480;48.920;12.880;2024-01-06T08:12:42;95955.34;;;2.74;78.62
78206;BME280;67480;48.920;12.880;2024-01-06T08:15:08;95971.16;;;2.72;78.59
78206;BME280;67480;48.920;12.880;2024-01-06T08:17:34;95958.94;;;2.73;78.91
78206;BME280;67480;48.920;12.880;2024-01-06T08:20:00;95961.78;;;2.71;78.80
78206;BME280;67480;48.920;12.880;2024-01-06T08:22:25;95963.56;;;2.71;79.09
78206;BME280;67480;48.920;12.880;2024-01-06T08:24:51;95966.75;;;2.73;78.83
78206;BME280;67480;48.920;12.880;2024-01-06T08:27:16;95961.34;;;2.74;78.78
78206;BME280;67480;48.920;12.880;2024-01-06T08:29:42;95964.50;;;2.76;78.77
78206;BME280;67480;48.920;12.880;2024-01-06T08:32:07;95964.75;;;2.75;78.87
78206;BME280;67480;48.920;12.880;2024-01-06T08:34:33;95967.34;;;2.75;78.87
78206;BME280;67480;48.920;12.880;2024-01-06T08:36:58;95972.72;;;2.80;78.97
78206;BME280;67480;48.920;12.880;2024-01-06T08:39:23;95966.31;;;2.76;78.75
78206;BME280;67480;48.920;12.880;2024-01-06T08:41:50;95970.66;;;2.82;78.71
78206;BME280;67480;48.920;12.880;2024-01-06T08:44:15;95964.50;;;2.76;78.87
78206;BME280;67480;48.920;12.880;2024-01-06T08:46:42;95971.69;;;2.81;79.03
78206;BME280;67480;48.920;12.880;2024-01-06T08:49:09;95962.94;;;2.75;79.01
78206;BME280;67480;48.920;12.880;2024-01-06T08:51:34;95971.69;;;2.81;79.11
78206;BME280;67480;48.920;12.880;2024-01-06T08:54:00;95970.66;;;2.82;79.11
78206;BME280;67480;48.920;12.880;2024-01-06T08:56:28;95962.88;;;2.82;79.09
78206;BME280;67480;48.920;12.880;2024-01-06T08:58:57;95969.88;;;2.81;79.04
78206;BME280;67480;48.920;12.880;2024-01-06T09:01:22;95973.06;;;2.83;79.07
78206;BME280;67480;48.920;12.880;2024-01-06T09:03:48;95985.66;;;2.86;79.14
78206;BME280;67480;48.920;12.880;2024-01-06T09:06:15;95979.06;;;2.84;78.82
78206;BME280;67480;48.920;12.880;2024-01-06T09:08:43;95983.84;;;2.87;78.81
78206;BME280;67480;48.920;12.880;2024-01-06T09:11:09;95975.84;;;2.88;78.74
78206;BME280;67480;48.920;12.880;2024-01-06T09:13:34;95986.16;;;2.95;78.63
78206;BME280;67480;48.920;12.880;2024-01-06T09:15:59;95986.16;;;2.95;79.00
78206;BME280;67480;48.920;12.880;2024-01-06T09:18:26;95983.22;;;2.92;78.80
78206;BME280;67480;48.920;12.880;2024-01-06T09:20:58;95989.19;;;2.92;79.27
78206;BME280;67480;48.920;12.880;2024-01-06T09:23:23;96006.56;;;2.98;78.97
78206;BME280;67480;48.920;12.880;2024-01-06T09:25:49;95999.34;;;3.00;79.34
78206;BME280;67480;48.920;12.880;2024-01-06T09:28:21;95980.59;;;2.92;78.80
78206;BME280;67480;48.920;12.880;2024-01-06T09:31:11;95997.09;;;3.04;79.13
78206;BME280;67480;48.920;12.880;2024-01-06T09:33:44;95993.53;;;2.98;79.17
78206;BME280;67480;48.920;12.880;2024-01-06T09:36:10;95989.28;;;3.04;78.74
78206;BME280;67480;48.920;12.880;2024-01-06T09:38:44;95987.91;;;3.01;78.45
78206;BME280;67480;48.920;12.880;2024-01-06T09:41:15;95989.13;;;2.99;78.74
78206;BME280;67480;48.920;12.880;2024-01-06T09:43:59;95999.50;;;3.05;78.68
78206;BME280;67480;48.920;12.880;2024-01-06T09:46:29;95988.34;;;2.98;79.24
78206;BME280;67480;48.920;12.880;2024-01-06T09:49:05;96002.09;;;3.05;78.94
78206;BME280;67480;48.920;12.880;2024-01-06T09:51:39;95993.72;;;3.03;78.66
78206;BME280;67480;48.920;12.880;2024-01-06T09:54:12;95989.72;;;3.01;78.56
78206;BME280;67480;48.920;12.880;2024-01-06T09:56:55;95996.91;;;3.05;79.07
78206;BME280;67480;48.920;12.880;2024-01-06T09:59:22;95998.91;;;3.03;78.45
78206;BME280;67480;48.920;12.880;2024-01-06T10:01:51;96002.47;;;3.09;78.67
78206;BME280;67480;48.920;12.880;2024-01-06T10:04:18;96007.59;;;3.16;78.41
78206;BME280;67480;48.920;12.880;2024-01-06T10:06:43;96000.22;;;3.12;78.67
78206;BME280;67480;48.920;12.880;2024-01-06T10:09:10;95985.63;;;3.11;78.21
78206;BME280;67480;48.920;12.880;2024-01-06T10:11:36;95994.81;;;3.14;78.45
78206;BME280;67480;48.920;12.880;2024-01-06T10:14:04;95999.78;;;3.16;78.84
78206;BME280;67480;48.920;12.880;2024-01-06T10:16:30;95976.25;;;3.10;78.19
78206;BME280;67480;48.920;12.880;2024-01-06T10:18:56;95985.56;;;3.18;78.68
78206;BME280;67480;48.920;12.880;2024-01-06T10:21:21;95979.56;;;3.18;78.41
78206;BME280;67480;48.920;12.880;2024-01-06T10:23:48;95989.13;;;3.24;78.42
78206;BME280;67480;48.920;12.880;2024-01-06T10:26:16;95988.69;;;3.27;78.54
78206;BME280;67480;48.920;12.880;2024-01-06T10:28:43;95976.34;;;3.22;78.08
78206;BME280;67480;48.920;12.880;2024-01-06T10:31:08;95989.06;;;3.30;78.09
78206;BME280;67480;48.920;12.880;2024-01-06T10:33:34;95983.06;;;3.30;77.75
78206;BME280;67480;48.920;12.880;2024-01-06T10:36:00;95976.41;;;3.34;77.94
78206;BME280;67480;48.920;12.880;2024-01-06T10:38:26;95985.97;;;3.40;77.96
78206;BME280;67480;48.920;12.880;2024-01-06T10:41:03;95969.06;;;3.31;77.95
78206;BME280;67480;48.920;12.880;2024-01-06T10:43:33;95985.38;;;3.38;77.91
78206;BME280;67480;48.920;12.880;2024-01-06T10:46:20;95986.56;;;3.42;77.89
78206;BME280;67480;48.920;12.880;2024-01-06T10:48:48;95978.59;;;3.37;77.46
78206;BME280;67480;48.920;12.880;2024-01-06T10:51:14;95987.00;;;3.39;77.56
78206;BME280;67480;48.920;12.880;2024-01-06T10:53:41;95992.16;;;3.46;77.69
78206;BME280;67480;48.920;12.880;2024-01-06T10:56:07;95996.13;;;3.48;77.23
78206;BME280;67480;48.920;12.880;2024-01-06T10:58:46;95987.28;;;3.49;77.00
78206;BME280;67480;48.920;12.880;2024-01-06T11:01:19;95987.72;;;3.46;76.64
78206;BME280;67480;48.920;12.880;2024-01-06T11:03:47;95987.44;;;3.54;76.49
78206;BME280;67480;48.920;12.880;2024-01-06T11:06:13;95982.09;;;3.49;76.60
78206;BME280;67480;48.920;12.880;2024-01-06T11:11:34;95982.91;;;3.50;76.35
78206;BME280;67480;48.920;12.880;2024-01-06T11:14:25;95978.41;;;3.57;75.94
78206;BME280;67480;48.920;12.880;2024-01-06T11:16:51;95978.06;;;3.53;76.25
78206;BME280;67480;48.920;12.880;2024-01-06T11:22:29;95976.53;;;3.64;75.75
78206;BME280;67480;48.920;12.880;2024-01-06T11:25:04;95974.72;;;3.65;75.75
78206;BME280;67480;48.920;12.880;2024-01-06T11:27:34;95979.28;;;3.69;76.12
78206;BME280;67480;48.920;12.880;2024-01-06T11:30:06;95974.72;;;3.65;75.71
78206;BME280;67480;48.920;12.880;2024-01-06T11:32:40;95966.78;;;3.60;76.11
78206;BME280;67480;48.920;12.880;2024-01-06T11:35:13;95962.31;;;3.67;75.51
78206;BME280;67480;48.920;12.880;2024-01-06T11:40:32;95967.06;;;3.70;75.52
78206;BME280;67480;48.920;12.880;2024-01-06T11:43:11;95970.03;;;3.73;75.53
78206;BME280;67480;48.920;12.880;2024-01-06T11:45:40;95964.03;;;3.73;75.60
78206;BME280;67480;48.920;12.880;2024-01-06T11:48:10;95962.22;;;3.73;75.59
78206;BME280;67480;48.920;12.880;2024-01-06T11:50:38;95956.78;;;3.75;75.62
78206;BME280;67480;48.920;12.880;2024-01-06T11:53:05;95954.16;;;3.75;76.25
78206;BME280;67480;48.920;12.880;2024-01-06T11:55:31;95955.97;;;3.74;76.16
78206;BME280;67480;48.920;12.880;2024-01-06T11:57:57;95951.00;;;3.73;75.80
78206;BME280;67480;48.920;12.880;2024-01-06T12:00:27;95948.97;;;3.75;76.12
78206;BME280;67480;48.920;12.880;2024-01-06T12:02:57;95955.78;;;3.76;76.12
78206;BME280;67480;48.920;12.880;2024-01-06T12:05:23;95956.78;;;3.75;76.48
78206;BME280;67480;48.920;12.880;2024-01-06T12:07:58;95952.72;;;3.79;77.10
78206;BME280;67480;48.920;12.880;2024-01-06T12:10:24;95952.72;;;3.79;76.56
78206;BME280;67480;48.920;12.880;2024-01-06T12:13:04;95961.34;;;3.79;76.47
78206;BME280;67480;48.920;12.880;2024-01-06T12:15:31;95958.16;;;3.77;76.03
78206;BME280;67480;48.920;12.880;2024-01-06T12:17:58;95952.16;;;3.77;76.71
78206;BME280;67480;48.920;12.880;2024-01-06T12:20:25;95949.53;;;3.77;76.35
78206;BME280;67480;48.920;12.880;2024-01-06T12:22:51;95950.13;;;3.79;76.71
78206;BME280;67480;48.920;12.880;2024-01-06T12:25:17;95952.72;;;3.79;76.62
78206;BME280;67480;48.920;12.880;2024-01-06T12:27:43;95951.72;;;3.80;76.54
